Bookmark and Share
Track history (hours):
 

Eendracht (Netherlands)

Last reported at 2014-Apr-24 01:31 UTC. Time now 2014-Apr-24 01:49 UTC.
Position N 52°58' E 004°47'.

Length 59 m; beam 12 m; draft 5 m.

Type: Sailing vessel. MMSI: 244543000.

NotesDate/timePositionNaut miles runAvg speedWind from/ knotsBaromVisibWave heightAir tempDewpointWater temp
2014-Apr-24 01:31N 52°58' E 004°47'0 0.0
2014-Apr-24 00:31N 52°58' E 004°47'0 0.0
2014-Apr-23 23:31N 52°58' E 004°47'0 0.0
2014-Apr-23 22:31N 52°58' E 004°47'0 0.0
2014-Apr-23 21:31N 52°58' E 004°47'0 0.0
2014-Apr-23 20:31N 52°58' E 004°47'0 0.0
2014-Apr-23 19:31N 52°58' E 004°47'0 0.0
2014-Apr-23 18:31N 52°58' E 004°47'0 0.0
2014-Apr-23 17:31N 52°58' E 004°47'0 0.0
2014-Apr-23 16:29N 52°58' E 004°47'0 0.0
2014-Apr-23 15:31N 52°58' E 004°47'0 0.0
2014-Apr-23 14:33N 52°58' E 004°47'1 0.9
2014-Apr-23 13:33N 52°59' E 004°48'3 3.2
2014-Apr-23 12:33N 53°01' E 004°50'0 0.4
2014-Apr-23 11:33N 53°01' E 004°50'1 0.7
2014-Apr-23 10:34N 53°02' E 004°51'2 2.1
2014-Apr-23 09:34N 53°03' E 004°53'2 2.2
2014-Apr-23 08:33N 53°02' E 004°50'1 0.9
2014-Apr-23 07:33N 53°01' E 004°49'4 4.0
2014-Apr-23 06:34N 52°59' E 004°44'5 4.6
2014-Apr-23 05:33N 52°55' E 004°40'5 5.0
2014-Apr-23 04:34N 52°52' E 004°33'6 5.6
2014-Apr-23 03:33N 52°50' E 004°24'5 5.1
2014-Apr-23 02:32N 52°48' E 004°16'4 3.7
2014-Apr-23 01:33N 52°45' E 004°16'4 4.3
2014-Apr-23 00:33N 52°40' E 004°18'5 4.6
2014-Apr-22 23:33N 52°36' E 004°22'5 4.9
2014-Apr-22 22:34N 52°32' E 004°26'5 5.2
2014-Apr-22 21:34N 52°27' E 004°25'5 5.2
2014-Apr-22 20:34N 52°22' E 004°23'5 5.3
2014-Apr-22 19:34N 52°17' E 004°21'5 5.3
2014-Apr-22 18:34N 52°12' E 004°18'5 5.3
2014-Apr-22 17:34N 52°07' E 004°15'0 0.1
2014-Apr-22 16:33N 52°07' E 004°15'0 0.2
2014-Apr-22 15:34N 52°07' E 004°15'0 0.3
2014-Apr-22 14:34N 52°07' E 004°15'1 0.9
2014-Apr-22 13:33N 52°08' E 004°14'0 0.1
2014-Apr-22 12:34N 52°08' E 004°14'2 2.4
2014-Apr-22 11:33N 52°06' E 004°12'6 5.9
2014-Apr-22 10:33N 52°01' E 004°06'10 4.8
2014-Apr-22 08:33N 51°54' E 004°16'5 5.3
2014-Apr-22 07:34N 51°54' E 004°25'2 1.8
2014-Apr-22 06:33N 51°54' E 004°28'0 0.0
2014-Apr-22 05:33N 51°54' E 004°28'0 0.0
2014-Apr-22 04:33N 51°54' E 004°28'0 0.0
2014-Apr-22 03:30N 51°54' E 004°28'0 0.0
2014-Apr-22 02:33N 51°54' E 004°28'0 0.0
2014-Apr-22 01:33N 51°54' E 004°28'0 0.0
2014-Apr-22 00:33N 51°54' E 004°28'0 0.0
2014-Apr-21 23:33N 51°54' E 004°28'0 0.0
2014-Apr-21 22:33N 51°54' E 004°28'0 0.0
2014-Apr-21 21:33N 51°54' E 004°28'0 0.0
2014-Apr-21 20:29N 51°54' E 004°28'0 0.0
2014-Apr-21 19:32N 51°54' E 004°28'0 0.0
2014-Apr-21 18:30N 51°54' E 004°28'1 0.8
2014-Apr-21 17:33N 51°54' E 004°29'0 0.0
2014-Apr-21 16:30N 51°54' E 004°29'4 3.9
2014-Apr-21 15:33N 51°54' E 004°23'6 5.6
2014-Apr-21 14:34N 51°55' E 004°14'5 5.3
2014-Apr-21 13:32N 51°58' E 004°07'4 4.3
2014-Apr-21 12:32N 52°01' E 004°02'2 2.5
2014-Apr-21 11:33N 52°03' E 004°04'3 3.2
2014-Apr-21 10:33N 52°00' E 004°02'9 9.1
2014-Apr-21 09:33N 51°55' E 004°15'7 7.5
2014-Apr-21 08:33N 51°54' E 004°27'1 1.4
2014-Apr-21 07:28N 51°54' E 004°29'0 0.0
2014-Apr-21 06:28N 51°54' E 004°29'0 0.0
2014-Apr-21 05:31N 51°54' E 004°29'0 0.0
2014-Apr-21 04:31N 51°54' E 004°29'0 0.0
2014-Apr-21 03:28N 51°54' E 004°29'0 0.0
2014-Apr-21 02:31N 51°54' E 004°29'0 0.0
2014-Apr-21 01:31N 51°54' E 004°29'0 0.0
2014-Apr-21 00:31N 51°54' E 004°29'0 0.0
2014-Apr-20 23:28N 51°54' E 004°29'0 0.0
2014-Apr-20 22:31N 51°54' E 004°29'0 0.0
2014-Apr-20 21:28N 51°54' E 004°29'0 0.0
2014-Apr-20 20:28N 51°54' E 004°29'0 0.0
2014-Apr-20 19:28N 51°54' E 004°29'0 0.0
2014-Apr-20 18:28N 51°54' E 004°29'0 0.0
2014-Apr-20 17:28N 51°54' E 004°29'2 1.7
2014-Apr-20 16:33N 51°54' E 004°27'6 6.3
2014-Apr-20 15:33N 51°54' E 004°16'6 5.8
2014-Apr-20 14:33N 51°58' E 004°09'4 4.2
2014-Apr-20 13:33N 51°59' E 004°03'2 2.0
2014-Apr-20 12:33N 52°01' E 004°02'2 1.6
2014-Apr-20 11:33N 52°03' E 004°01'4 3.7
2014-Apr-20 10:33N 51°59' E 004°03'9 9.3
2014-Apr-20 09:33N 51°54' E 004°16'7 7.3
2014-Apr-20 08:34N 51°54' E 004°28'1 0.7
2014-Apr-20 07:29N 51°54' E 004°29'0 0.0
2014-Apr-20 06:29N 51°54' E 004°29'0 0.0
2014-Apr-20 05:29N 51°54' E 004°29'0 0.0
2014-Apr-20 04:29N 51°54' E 004°29'0 0.0
2014-Apr-20 03:29N 51°54' E 004°29'0 0.0
2014-Apr-20 02:32N 51°54' E 004°29'0 0.0
2014-Apr-20 01:32N 51°54' E 004°29'0 0.0
2014-Apr-20 00:32N 51°54' E 004°29'0 0.0
2014-Apr-19 23:32N 51°54' E 004°29'0 0.0
2014-Apr-19 22:32N 51°54' E 004°29'0 0.0
2014-Apr-19 21:28N 51°54' E 004°29'0 0.0
2014-Apr-19 20:22N 51°54' E 004°29'0 0.0
2014-Apr-19 19:28N 51°54' E 004°29'0 0.0
2014-Apr-19 18:28N 51°54' E 004°29'0 0.0
2014-Apr-19 17:28N 51°54' E 004°29'0 0.1
2014-Apr-19 16:33N 51°54' E 004°29'6 5.6
2014-Apr-19 15:33N 51°54' E 004°20'7 6.6
2014-Apr-19 14:33N 51°57' E 004°11'6 5.8
2014-Apr-19 13:33N 51°60' E 004°03'2 2.3
2014-Apr-19 12:34N 52°02' E 004°04'4 4.1
2014-Apr-19 11:33N 52°06' E 004°05'1 0.6
2014-Apr-19 10:33N 52°06' E 004°06'3 3.3
2014-Apr-19 09:33N 52°02' E 004°05'3 3.0
2014-Apr-19 08:33N 51°59' E 004°04'9 8.5
2014-Apr-19 07:33N 51°55' E 004°15'7 7.1
2014-Apr-19 06:33N 51°54' E 004°27'1 1.4
2014-Apr-19 05:31N 51°54' E 004°29'0 0.0
2014-Apr-19 04:31N 51°54' E 004°29'0 0.0
2014-Apr-19 03:31N 51°54' E 004°29'0 0.0
2014-Apr-19 02:31N 51°54' E 004°29'0 0.0
2014-Apr-19 01:25N 51°54' E 004°29'0 0.0
2014-Apr-19 00:34N 51°54' E 004°29'0 0.0
2014-Apr-18 23:30N 51°54' E 004°29'0 0.0
2014-Apr-18 22:33N 51°54' E 004°29'0 0.0
2014-Apr-18 21:30N 51°54' E 004°29'0 0.0
2014-Apr-18 20:30N 51°54' E 004°29'0 0.0
2014-Apr-18 19:33N 51°54' E 004°29'0 0.0
2014-Apr-18 18:33N 51°54' E 004°29'0 0.0
2014-Apr-18 17:33N 51°54' E 004°29'165165.4
2014-Apr-18 16:33N 51°54' E 000°01'165160.5
2014-Apr-18 15:32N 51°54' E 004°28'0 0.0
2014-Apr-18 14:32N 51°54' E 004°28'0 0.0
2014-Apr-18 13:32N 51°54' E 004°28'3 2.7
2014-Apr-18 12:33N 51°54' E 004°23'4 4.2
2014-Apr-18 11:33N 51°54' E 004°17'4 4.2
2014-Apr-18 10:33N 51°57' E 004°11'4 4.1
2014-Apr-18 09:33N 51°59' E 004°06'3 3.2
2014-Apr-18 08:33N 52°02' E 004°04'1 1.5
2014-Apr-18 07:33N 52°02' E 004°07'3 3.2
2014-Apr-18 06:33N 52°05' E 004°10'4 4.0
2014-Apr-18 05:34N 52°08' E 004°14'1 0.9
2014-Apr-18 04:33N 52°09' E 004°14'2 1.8
2014-Apr-18 03:33N 52°07' E 004°15'1 0.9
2014-Apr-18 02:33N 52°08' E 004°14'1 0.9
2014-Apr-18 01:33N 52°07' E 004°15'0 0.1
2014-Apr-18 00:33N 52°07' E 004°15'0 0.1
2014-Apr-17 23:33N 52°07' E 004°15'0 0.2
2014-Apr-17 22:33N 52°07' E 004°15'5 5.3
2014-Apr-17 21:33N 52°09' E 004°07'6 6.0
2014-Apr-17 20:33N 52°10' E 003°57'6 6.0
2014-Apr-17 19:32N 52°12' E 003°48'5 4.7
2014-Apr-17 18:33N 52°12' E 003°40'5 4.2
2014-Apr-17 17:17N 52°09' E 003°33'4 5.9
2014-Apr-17 16:33N 52°06' E 003°28'6 6.4
2014-Apr-17 15:33N 52°00' E 003°23'7 6.7
2014-Apr-17 14:33N 51°54' E 003°20'6 6.2
2014-Apr-17 13:31N 51°48' E 003°16'5 4.8
2014-Apr-17 12:33N 51°43' E 003°14'3 2.6
2014-Apr-17 11:32N 51°41' E 003°16'3 2.9
2014-Apr-17 10:33N 51°39' E 003°19'2 2.4
2014-Apr-17 09:33N 51°37' E 003°21'3 3.3
2014-Apr-17 08:33N 51°35' E 003°25'4 4.3
2014-Apr-17 07:33N 51°31' E 003°27'7 7.0
2014-Apr-17 06:34N 51°26' E 003°36'0 0.3
2014-Apr-17 05:31N 51°27' E 003°36'0 0.0
2014-Apr-17 04:31N 51°27' E 003°36'0 0.0
2014-Apr-17 03:28N 51°27' E 003°36'0 0.0
2014-Apr-17 02:31N 51°27' E 003°36'0 0.0
2014-Apr-17 01:28N 51°27' E 003°36'0 0.0
2014-Apr-17 00:34N 51°27' E 003°36'0 0.0
2014-Apr-16 23:34N 51°27' E 003°36'0 0.0
2014-Apr-16 22:34N 51°27' E 003°36'0 0.0
2014-Apr-16 21:33N 51°27' E 003°36'0 0.0
2014-Apr-16 20:33N 51°27' E 003°36'0 0.0
2014-Apr-16 19:33N 51°27' E 003°36'0 0.0
2014-Apr-16 18:32N 51°27' E 003°36'0 0.0
2014-Apr-16 17:32N 51°27' E 003°36'0 0.0
2014-Apr-16 16:32N 51°27' E 003°36'0 0.0
2014-Apr-16 15:32N 51°27' E 003°36'1 1.5
2014-Apr-16 14:33N 51°26' E 003°38'5 5.2
2014-Apr-16 13:34N 51°24' E 003°45'1 0.6
2014-Apr-16 12:33N 51°24' E 003°46'0 0.2
2014-Apr-16 11:33N 51°24' E 003°46'0 0.2
2014-Apr-16 10:34N 51°24' E 003°46'0 0.5
2014-Apr-16 09:34N 51°23' E 003°47'2 2.3
2014-Apr-16 08:34N 51°24' E 003°43'1 1.0
2014-Apr-16 07:34N 51°24' E 003°45'0 0.2
2014-Apr-16 06:34N 51°24' E 003°45'1 0.6
2014-Apr-16 05:34N 51°24' E 003°44'2 2.1
2014-Apr-16 04:33N 51°25' E 003°41'3 2.8
2014-Apr-16 03:34N 51°26' E 003°37'5 4.8
2014-Apr-16 02:34N 51°25' E 003°29'6 6.0
2014-Apr-16 01:34N 51°24' E 003°20'6 6.4
2014-Apr-16 00:33N 51°23' E 003°10'6 5.7
2014-Apr-15 23:33N 51°22' E 003°01'5 4.5
2014-Apr-15 22:33N 51°26' E 003°00'5 4.9
2014-Apr-15 21:33N 51°30' E 003°06'5 5.0
2014-Apr-15 20:33N 51°33' E 003°12'5 4.6
2014-Apr-15 19:33N 51°37' E 003°12'4 4.1
2014-Apr-15 18:33N 51°41' E 003°11'3 2.5
2014-Apr-15 17:34N 51°44' E 003°11'3 3.2
2014-Apr-15 16:33N 51°43' E 003°16'3 3.2
2014-Apr-15 15:31N 51°44' E 003°21'3 2.9
2014-Apr-15 14:26N 51°45' E 003°26'21 3.6
2014-Apr-15 08:33N 51°58' E 003°52'6 6.2
2014-Apr-15 07:34N 51°60' E 004°01'7 6.6
2014-Apr-15 06:34N 51°57' E 004°11'11 3.6
2014-Apr-15 03:34N 51°54' E 004°28'0 0.0
2014-Apr-15 02:31N 51°54' E 004°28'0 0.0
2014-Apr-15 00:34N 51°54' E 004°28'0 0.0
2014-Apr-14 23:34N 51°54' E 004°28'0 0.0
2014-Apr-14 21:33N 51°54' E 004°28'0 0.0
2014-Apr-14 20:33N 51°54' E 004°28'0 0.0
2014-Apr-14 19:33N 51°54' E 004°28'0 0.0
2014-Apr-14 17:33N 51°54' E 004°28'0 0.0
2014-Apr-14 16:33N 51°54' E 004°28'0 0.0
2014-Apr-14 15:33N 51°54' E 004°28'0 0.0
2014-Apr-14 14:33N 51°54' E 004°28'0 0.0
2014-Apr-14 13:30N 51°54' E 004°28'2 1.3
2014-Apr-14 11:34N 51°54' E 004°24'5 4.7
2014-Apr-14 10:33N 51°54' E 004°16'5 4.6
2014-Apr-14 09:34N 51°57' E 004°10'4 4.0
2014-Apr-14 08:34N 51°59' E 004°05'5 5.3
2014-Apr-14 07:33N 52°04' E 004°07'5 5.4
2014-Apr-14 06:33N 52°07' E 004°14'0 0.2
2014-Apr-14 05:34N 52°07' E 004°15'  

Dump ship's entire track history

sailing weather and tide predictions

Eendracht — PDVN — position and weather